Startpagina
METAR-TAF:

METAR-TAF

Vliegvelden :

Luchthaven Port Bouet

Abidjan, Ivoorkust

breedte: 05-15N, lengte: 003-56W, hoogte: 7 m

Actueel weer

Dit bericht is 29 minuten geleden gemaakt, om 11:00 UTC
Wind 6 kt uit het westzuidwesten
Temperatuur 30°C
Vochtigheid 75%
Druk 1012 hPa
Zicht 10 km of meer
Verspreide wolken op 1100 ft
Gebroken wolken op 2000 ft

METAR: DIAP 251100Z 25006KT 9999 SCT011 BKN020 30/25 Q1012 NOSIG

Tijdstip: 11:29 (11:29 UTC)

Verwachting

Dit bericht is 5 uur en het 59 minuten geleden gemaakt, om 05:30 UTC
Verwachting geldig van 25 om 06 UTC tot 26 om 12 UTC
Wind 10 kt uit het westzuidwesten
Zicht: 8000 m
Weinig wolken op 600 ft
Gebroken wolken op 1200 ft
Kans 40% :
Tijdelijke
van 25 om 08 UTC tot 25 om 12 UTC
Zicht: 4000 m
Verspreide wolken op 600 ft
Gebroken wolken op 1000 ft
Weinig wolken op 2000 ft, Cumulonimbus.
Gebroken wolken op 3000 ft
onweer, regen

TAF: DIAP 250530Z 2506/2612 24010KT 8000 FEW006 BKN012 PROB40 TEMPO 2508/2512 4000 TSRA SCT006 BKN010 FEW020CB BKN030

Waarnemingen en weersverwachtingen van meer dan 4000 vliegvelden (METAR en TAF).

De beschikbare stations zijn de gele en rode punten op de kaart.

Ga met uw muis naar het station om de naam te zien.

Klik dan om waarnemingen en weersverwachtingen te zien.

kaart wijzigen: klik op de groene knoppen met een zwart kruis om in te zoomen, op de groene knop met een streepje om uit te zoomen of op de groene pijlen voor aangrenzende kaarten.


METAR-TAF: